Time;durP1;ratioP1;P1;durP2;ratioP2;P2;SDS_P1;SDS_P2;PMS_P1;PMS_P2;Temp;Humidity;BMP_temperature;BMP_pressure;BME280_temperature;BME280_humidity;BME280_pressure;Samples;Min_cycle;Max_cycle;Signal;HPM_P1;HPM_P2
2020/12/16 00:01:24;;;;;;;68.47;36.22;;;;;;;;;;5076760;28;20432;-71
2020/12/16 00:03:49;;;;;;;75.72;39.75;;;;;;;;;;5058892;28;20382;-71
2020/12/16 00:06:15;;;;;;;72.93;38.20;;;;;;;;;;5076520;28;20077;-71
2020/12/16 00:08:41;;;;;;;72.13;39.95;;;;;;;;;;5076560;28;20031;-71
2020/12/16 00:11:06;;;;;;;74.85;42.15;;;;;;;;;;5076361;28;20479;-71
2020/12/16 00:13:32;;;;;;;80.07;41.13;;;;;;;;;;5076333;28;20093;-71
2020/12/16 00:15:58;;;;;;;73.63;39.83;;;;;;;;;;5058656;28;20543;-71
2020/12/16 00:18:24;;;;;;;80.10;40.78;;;;;;;;;;5076518;28;20097;-71
2020/12/16 00:20:49;;;;;;;70.60;38.65;;;;;;;;;;5076409;28;20028;-71
2020/12/16 00:23:15;;;;;;;70.22;36.80;;;;;;;;;;5058018;28;20135;-71
2020/12/16 00:25:41;;;;;;;62.85;36.10;;;;;;;;;;5076373;28;20417;-70
2020/12/16 00:28:06;;;;;;;65.82;36.38;;;;;;;;;;5058470;28;20107;-70
2020/12/16 00:30:32;;;;;;;68.22;34.80;;;;;;;;;;5058438;28;20017;-70
2020/12/16 00:32:57;;;;;;;63.22;32.90;;;;;;;;;;5076236;28;20016;-70
2020/12/16 00:35:23;;;;;;;59.00;31.48;;;;;;;;;;5058330;28;20103;-70
2020/12/16 00:37:49;;;;;;;58.90;31.88;;;;;;;;;;5076406;28;20021;-70
2020/12/16 00:40:17;;;;;;;56.90;30.23;;;;;;;;;;5076126;28;20458;-70
2020/12/16 00:42:49;;;;;;;57.17;31.10;;;;;;;;;;5058025;28;20508;-70
2020/12/16 00:45:15;;;;;;;53.33;27.90;;;;;;;;;;5075877;28;20066;-70
2020/12/16 00:47:41;;;;;;;57.92;31.23;;;;;;;;;;5075948;28;20043;-71
2020/12/16 00:50:07;;;;;;;52.85;30.23;;;;;;;;;;5057863;28;20479;-70
2020/12/16 00:52:33;;;;;;;53.40;28.17;;;;;;;;;;5057731;28;20040;-71
2020/12/16 00:55:00;;;;;;;46.78;26.35;;;;;;;;;;5057730;28;20032;-70
2020/12/16 00:57:27;;;;;;;52.88;28.58;;;;;;;;;;5041231;28;20021;-70
2020/12/16 00:59:52;;;;;;;57.58;29.98;;;;;;;;;;5057375;28;20070;-70
2020/12/16 01:02:18;;;;;;;52.45;29.02;;;;;;;;;;5057601;28;20028;-70
2020/12/16 01:04:44;;;;;;;53.58;29.27;;;;;;;;;;5057407;28;20043;-71
2020/12/16 01:07:10;;;;;;;52.55;29.42;;;;;;;;;;5056626;28;20025;-70
2020/12/16 01:09:35;;;;;;;51.17;28.48;;;;;;;;;;5075545;28;20577;-71
2020/12/16 01:12:02;;;;;;;52.97;28.90;;;;;;;;;;5075246;28;20058;-71
2020/12/16 01:14:28;;;;;;;52.70;29.48;;;;;;;;;;5057366;28;20491;-71
2020/12/16 01:16:53;;;;;;;56.08;30.38;;;;;;;;;;5057436;28;20026;-70
2020/12/16 01:19:23;;;;;;;53.60;28.42;;;;;;;;;;5057278;28;20063;-70
2020/12/16 01:21:50;;;;;;;53.58;28.40;;;;;;;;;;5057407;28;20074;-70
2020/12/16 01:24:15;;;;;;;58.65;28.80;;;;;;;;;;5057275;28;20032;-71
2020/12/16 01:26:46;;;;;;;51.40;29.00;;;;;;;;;;5057049;28;20040;-71
2020/12/16 01:29:13;;;;;;;61.85;32.00;;;;;;;;;;5057266;28;20036;-71
2020/12/16 01:31:40;;;;;;;63.60;32.03;;;;;;;;;;5057132;28;20020;-71
2020/12/16 01:34:08;;;;;;;55.30;30.30;;;;;;;;;;5057495;28;20387;-71
2020/12/16 01:36:42;;;;;;;54.38;30.90;;;;;;;;;;5057059;28;20020;-72
2020/12/16 01:39:10;;;;;;;49.35;27.38;;;;;;;;;;5056869;28;20031;-72
2020/12/16 01:41:46;;;;;;;49.45;27.17;;;;;;;;;;5056944;28;20074;-71
2020/12/16 01:44:13;;;;;;;51.03;27.73;;;;;;;;;;5057021;28;20052;-71
2020/12/16 01:46:51;;;;;;;56.28;31.58;;;;;;;;;;5056811;28;20063;-71
2020/12/16 01:49:20;;;;;;;52.88;29.35;;;;;;;;;;5056788;28;20128;-70
2020/12/16 01:51:47;;;;;;;49.78;29.30;;;;;;;;;;5074838;28;20028;-70
2020/12/16 01:54:14;;;;;;;56.10;31.45;;;;;;;;;;5040077;28;20486;-70
2020/12/16 01:56:41;;;;;;;50.13;28.98;;;;;;;;;;5056775;28;20027;-72
2020/12/16 01:59:21;;;;;;;50.47;27.23;;;;;;;;;;5056078;28;20039;-71
2020/12/16 02:01:52;;;;;;;51.28;27.10;;;;;;;;;;5074581;28;20028;-72
2020/12/16 02:04:21;;;;;;;42.78;24.10;;;;;;;;;;5056330;28;20432;-72
2020/12/16 02:06:48;;;;;;;47.97;27.77;;;;;;;;;;5056542;28;20021;-70
2020/12/16 02:09:20;;;;;;;48.85;27.10;;;;;;;;;;5074474;28;20435;-71
2020/12/16 02:12:00;;;;;;;46.40;25.27;;;;;;;;;;5033714;28;20043;-71
2020/12/16 02:14:28;;;;;;;39.40;23.75;;;;;;;;;;5055973;28;20048;-71
2020/12/16 02:16:59;;;;;;;45.38;25.02;;;;;;;;;;5073928;28;20020;-71
2020/12/16 02:19:27;;;;;;;44.78;25.55;;;;;;;;;;5074151;28;20063;-71
2020/12/16 02:22:08;;;;;;;48.25;26.65;;;;;;;;;;5056334;28;20025;-71
2020/12/16 02:24:38;;;;;;;46.33;25.88;;;;;;;;;;5073953;28;20031;-71
2020/12/16 02:27:03;;;;;;;48.13;26.67;;;;;;;;;;5056336;28;20435;-71
2020/12/16 02:29:30;;;;;;;48.10;25.98;;;;;;;;;;5039562;28;20082;-71
2020/12/16 02:32:02;;;;;;;47.90;25.38;;;;;;;;;;5055947;28;20021;-71
2020/12/16 02:34:27;;;;;;;46.35;24.05;;;;;;;;;;5055904;28;20035;-71
2020/12/16 02:36:53;;;;;;;37.25;21.15;;;;;;;;;;5056186;28;20417;-71
2020/12/16 02:39:32;;;;;;;36.10;21.13;;;;;;;;;;5056044;28;20391;-71
2020/12/16 02:42:25;;;;;;;35.97;20.80;;;;;;;;;;5073287;28;20032;-71
2020/12/16 02:44:51;;;;;;;35.45;20.73;;;;;;;;;;5073677;28;20440;-72
2020/12/16 02:47:41;;;;;;;38.53;21.10;;;;;;;;;;5058782;28;20017;-71
2020/12/16 02:50:15;;;;;;;35.33;21.25;;;;;;;;;;5055611;28;20039;-72
2020/12/16 02:52:45;;;;;;;44.03;25.42;;;;;;;;;;5055648;28;20033;-71
2020/12/16 02:55:15;;;;;;;42.70;26.05;;;;;;;;;;5055334;28;20036;-71
2020/12/16 02:57:54;;;;;;;47.55;29.88;;;;;;;;;;5055790;28;20045;-71
2020/12/16 03:00:20;;;;;;;43.58;25.85;;;;;;;;;;5055020;28;20560;-71
2020/12/16 03:03:04;;;;;;;35.90;20.77;;;;;;;;;;5073938;28;20082;-71
2020/12/16 03:05:54;;;;;;;29.60;19.27;;;;;;;;;;5062455;28;20029;-72
2020/12/16 03:08:35;;;;;;;33.50;19.55;;;;;;;;;;5055400;28;20024;-72
2020/12/16 03:11:04;;;;;;;40.20;25.10;;;;;;;;;;5055310;28;20036;-71
2020/12/16 03:13:30;;;;;;;41.55;25.05;;;;;;;;;;5055272;28;20416;-71
2020/12/16 03:16:00;;;;;;;33.15;20.52;;;;;;;;;;5055286;28;20495;-71
2020/12/16 03:18:28;;;;;;;35.20;20.20;;;;;;;;;;5055278;28;20460;-71
2020/12/16 03:20:59;;;;;;;43.88;25.33;;;;;;;;;;5055385;28;20024;-71
2020/12/16 03:23:26;;;;;;;65.38;34.63;;;;;;;;;;5055118;28;20205;-72
2020/12/16 03:26:16;;;;;;;73.40;38.67;;;;;;;;;;5055331;28;20025;-72
2020/12/16 03:28:55;;;;;;;59.20;30.75;;;;;;;;;;5054586;28;20387;-70
2020/12/16 03:31:53;;;;;;;39.03;22.67;;;;;;;;;;5028062;28;20036;-70
2020/12/16 03:34:39;;;;;;;42.80;24.42;;;;;;;;;;5055078;28;20029;-70
2020/12/16 03:37:16;;;;;;;25.58;17.20;;;;;;;;;;5055092;28;20056;-70
2020/12/16 03:39:42;;;;;;;24.52;14.70;;;;;;;;;;5054843;28;20029;-71
2020/12/16 03:42:10;;;;;;;21.80;13.98;;;;;;;;;;5038741;28;20021;-71
2020/12/16 03:44:36;;;;;;;20.38;12.85;;;;;;;;;;5055221;28;20037;-71
2020/12/16 03:47:01;;;;;;;18.08;12.00;;;;;;;;;;5072969;28;20024;-71
2020/12/16 03:49:27;;;;;;;15.90;10.13;;;;;;;;;;5072963;28;20039;-71
2020/12/16 03:51:58;;;;;;;14.23;10.07;;;;;;;;;;5054921;28;20021;-70
2020/12/16 03:54:33;;;;;;;13.18;9.13;;;;;;;;;;5054786;28;20059;-72
2020/12/16 03:57:21;;;;;;;11.77;8.98;;;;;;;;;;5055385;28;20119;-72
2020/12/16 04:00:10;;;;;;;11.55;8.45;;;;;;;;;;5065995;28;20055;-71
2020/12/16 04:02:42;;;;;;;12.80;8.55;;;;;;;;;;5073164;28;20509;-71
2020/12/16 04:05:23;;;;;;;13.50;9.43;;;;;;;;;;5054616;28;20043;-71
2020/12/16 04:07:48;;;;;;;17.98;10.70;;;;;;;;;;5054810;28;20040;-71
2020/12/16 04:10:34;;;;;;;31.25;16.58;;;;;;;;;;5071287;28;20020;-71
2020/12/16 04:12:59;;;;;;;51.22;21.13;;;;;;;;;;5072723;28;20112;-71
2020/12/16 04:15:25;;;;;;;40.63;18.80;;;;;;;;;;5054717;28;20017;-71
2020/12/16 04:17:51;;;;;;;23.10;12.73;;;;;;;;;;5054762;28;20453;-72
2020/12/16 04:20:19;;;;;;;15.73;9.38;;;;;;;;;;5072750;28;20528;-72
2020/12/16 04:22:59;;;;;;;9.60;7.80;;;;;;;;;;5054780;28;20085;-72
2020/12/16 04:25:25;;;;;;;10.00;8.05;;;;;;;;;;5038046;28;20028;-71
2020/12/16 04:27:51;;;;;;;11.40;8.48;;;;;;;;;;5054665;28;20549;-70
2020/12/16 04:30:19;;;;;;;10.60;8.20;;;;;;;;;;5054587;28;20029;-71
2020/12/16 04:32:56;;;;;;;10.90;7.35;;;;;;;;;;5054725;28;20024;-71
2020/12/16 04:35:24;;;;;;;8.30;6.60;;;;;;;;;;5054621;28;20025;-71
2020/12/16 04:37:50;;;;;;;8.95;6.75;;;;;;;;;;5054362;28;20020;-71
2020/12/16 04:40:16;;;;;;;8.73;6.82;;;;;;;;;;5055698;28;20383;-71
2020/12/16 04:42:42;;;;;;;9.02;7.40;;;;;;;;;;5041797;28;20493;-72
2020/12/16 04:45:09;;;;;;;9.52;7.38;;;;;;;;;;5058236;28;20032;-71
2020/12/16 04:47:36;;;;;;;8.95;6.90;;;;;;;;;;5058130;28;20028;-71
2020/12/16 04:50:13;;;;;;;10.07;7.32;;;;;;;;;;5058015;28;20048;-70
2020/12/16 04:52:49;;;;;;;9.30;6.97;;;;;;;;;;5075926;28;20033;-70
2020/12/16 04:55:20;;;;;;;11.23;7.75;;;;;;;;;;5057849;28;20024;-71
2020/12/16 04:58:04;;;;;;;9.20;7.32;;;;;;;;;;5076275;28;20027;-72
2020/12/16 05:00:31;;;;;;;9.88;7.10;;;;;;;;;;5057195;28;20078;-71
2020/12/16 05:03:17;;;;;;;9.20;6.93;;;;;;;;;;5043962;28;20040;-72
2020/12/16 05:05:55;;;;;;;9.85;7.43;;;;;;;;;;5059665;28;20501;-71
2020/12/16 05:08:20;;;;;;;11.90;7.35;;;;;;;;;;5057652;28;20028;-72
2020/12/16 05:10:50;;;;;;;10.52;8.27;;;;;;;;;;5057580;28;20025;-71
2020/12/16 05:13:17;;;;;;;16.33;11.52;;;;;;;;;;5057609;28;20035;-71
2020/12/16 05:15:46;;;;;;;25.20;17.80;;;;;;;;;;5074674;28;20048;-71
2020/12/16 05:18:22;;;;;;;20.52;14.13;;;;;;;;;;5074274;28;20465;-71
2020/12/16 05:20:49;;;;;;;13.40;9.57;;;;;;;;;;5074478;28;20371;-71
2020/12/16 05:23:15;;;;;;;12.35;8.52;;;;;;;;;;5074776;28;20031;-71
2020/12/16 05:25:57;;;;;;;11.30;7.85;;;;;;;;;;5074623;28;20086;-71
2020/12/16 05:28:33;;;;;;;9.45;7.22;;;;;;;;;;5074516;28;20547;-71
2020/12/16 05:31:01;;;;;;;8.93;7.05;;;;;;;;;;5075011;28;20036;-71
2020/12/16 05:33:27;;;;;;;9.65;7.57;;;;;;;;;;5075076;28;20498;-72
2020/12/16 05:35:53;;;;;;;8.43;6.95;;;;;;;;;;5075180;28;20021;-71
2020/12/16 05:38:19;;;;;;;8.38;7.05;;;;;;;;;;5075134;28;20044;-71
2020/12/16 05:40:45;;;;;;;8.77;6.95;;;;;;;;;;5075025;28;20029;-71
2020/12/16 05:43:20;;;;;;;10.15;7.90;;;;;;;;;;5040480;28;20022;-71
2020/12/16 05:45:46;;;;;;;10.00;7.68;;;;;;;;;;5075056;28;20040;-71
2020/12/16 05:48:12;;;;;;;10.45;7.78;;;;;;;;;;5056900;28;20027;-71
2020/12/16 05:50:39;;;;;;;10.82;8.07;;;;;;;;;;5074810;28;20024;-71
2020/12/16 05:53:08;;;;;;;9.23;6.18;;;;;;;;;;5056074;28;20024;-71
2020/12/16 05:55:34;;;;;;;9.68;7.25;;;;;;;;;;5074573;28;20032;-71
2020/12/16 05:58:25;;;;;;;10.32;7.45;;;;;;;;;;5056615;28;20021;-71
2020/12/16 06:00:58;;;;;;;8.40;7.28;;;;;;;;;;5052804;28;20115;-71
2020/12/16 06:03:31;;;;;;;8.32;6.28;;;;;;;;;;5074751;28;20090;-71
2020/12/16 06:05:58;;;;;;;10.80;7.47;;;;;;;;;;5074619;28;20024;-71
2020/12/16 06:08:25;;;;;;;9.02;6.53;;;;;;;;;;5074588;28;20528;-71
2020/12/16 06:10:51;;;;;;;8.02;6.45;;;;;;;;;;5056656;28;20447;-71
2020/12/16 06:13:17;;;;;;;9.73;6.55;;;;;;;;;;5056413;28;20421;-71
2020/12/16 06:15:53;;;;;;;9.55;6.90;;;;;;;;;;5074354;28;20429;-71
2020/12/16 06:18:20;;;;;;;8.18;6.28;;;;;;;;;;5056340;28;20482;-71
2020/12/16 06:20:46;;;;;;;7.15;6.43;;;;;;;;;;5056352;28;20463;-71
2020/12/16 06:23:22;;;;;;;9.20;6.45;;;;;;;;;;5073909;28;20070;-71
2020/12/16 06:25:48;;;;;;;8.40;6.43;;;;;;;;;;5056125;28;20094;-71
2020/12/16 06:28:14;;;;;;;11.73;7.15;;;;;;;;;;5073958;28;20525;-71
2020/12/16 06:30:46;;;;;;;7.78;6.90;;;;;;;;;;5055964;28;20036;-71
2020/12/16 06:33:11;;;;;;;8.52;6.53;;;;;;;;;;5074015;28;20033;-71
2020/12/16 06:35:38;;;;;;;10.82;6.75;;;;;;;;;;5055903;28;20421;-71
2020/12/16 06:38:20;;;;;;;9.70;7.13;;;;;;;;;;5073919;28;20071;-66
2020/12/16 06:40:47;;;;;;;9.95;6.97;;;;;;;;;;5073913;28;20033;-70
2020/12/16 06:43:31;;;;;;;10.20;6.88;;;;;;;;;;5056004;28;20501;-70
2020/12/16 06:45:58;;;;;;;10.60;6.30;;;;;;;;;;5055699;28;20024;-68
2020/12/16 06:48:36;;;;;;;9.50;6.43;;;;;;;;;;5055740;28;20083;-69
2020/12/16 06:51:30;;;;;;;9.93;6.03;;;;;;;;;;5073521;28;20432;-69
2020/12/16 06:54:03;;;;;;;10.93;7.43;;;;;;;;;;5052302;28;20051;-69
2020/12/16 06:56:29;;;;;;;14.55;9.95;;;;;;;;;;5073569;28;20442;-69
2020/12/16 06:58:55;;;;;;;17.33;11.30;;;;;;;;;;5055478;28;20009;-70
2020/12/16 07:01:20;;;;;;;16.45;9.98;;;;;;;;;;5073286;28;20093;-70
2020/12/16 07:03:47;;;;;;;14.80;11.00;;;;;;;;;;5073306;28;20028;-70
2020/12/16 07:06:28;;;;;;;18.10;11.43;;;;;;;;;;5073308;28;20058;-70
2020/12/16 07:09:12;;;;;;;16.42;9.73;;;;;;;;;;5073243;28;20032;-70
2020/12/16 07:11:38;;;;;;;13.27;8.80;;;;;;;;;;5073399;28;20025;-70
2020/12/16 07:14:10;;;;;;;15.60;8.65;;;;;;;;;;5073506;28;20027;-70
2020/12/16 07:16:36;;;;;;;13.13;8.40;;;;;;;;;;5055333;28;20048;-70
2020/12/16 07:19:02;;;;;;;13.90;8.55;;;;;;;;;;5073202;28;20036;-70
2020/12/16 07:21:29;;;;;;;14.90;9.75;;;;;;;;;;5073140;28;20020;-70
2020/12/16 07:23:54;;;;;;;16.85;10.00;;;;;;;;;;5073235;28;20493;-70
2020/12/16 07:26:30;;;;;;;14.25;9.25;;;;;;;;;;5073066;28;20070;-70
2020/12/16 07:28:57;;;;;;;20.02;11.77;;;;;;;;;;5038630;28;20068;-70
2020/12/16 07:31:23;;;;;;;26.08;15.55;;;;;;;;;;5055113;28;20024;-70
2020/12/16 07:33:49;;;;;;;28.67;18.20;;;;;;;;;;5055107;28;20403;-70
2020/12/16 07:36:18;;;;;;;22.55;14.98;;;;;;;;;;5055231;28;20017;-70
2020/12/16 07:38:52;;;;;;;13.73;9.93;;;;;;;;;;5073021;28;20025;-70
2020/12/16 07:41:30;;;;;;;14.30;9.73;;;;;;;;;;5038333;28;20368;-70
2020/12/16 07:43:59;;;;;;;15.98;9.60;;;;;;;;;;5072976;28;20029;-70
2020/12/16 07:46:26;;;;;;;12.93;8.75;;;;;;;;;;5054904;28;20563;-70
2020/12/16 07:48:51;;;;;;;11.48;8.02;;;;;;;;;;5054204;28;20040;-70
2020/12/16 07:51:18;;;;;;;14.10;9.70;;;;;;;;;;5070895;28;20154;-70
2020/12/16 07:53:48;;;;;;;24.45;13.98;;;;;;;;;;5053116;28;20411;-70
2020/12/16 07:56:13;;;;;;;30.92;17.55;;;;;;;;;;5072109;28;20017;-70
2020/12/16 08:02:19;;;;;;;12.27;8.50;;;;;;;;;;5072609;28;20075;-70
2020/12/16 08:04:53;;;;;;;11.57;7.50;;;;;;;;;;5072837;28;20036;-71
2020/12/16 08:07:19;;;;;;;14.20;7.70;;;;;;;;;;5054980;28;20490;-70
2020/12/16 08:09:52;;;;;;;12.00;8.15;;;;;;;;;;5072815;28;20029;-70
2020/12/16 08:12:19;;;;;;;10.77;8.82;;;;;;;;;;5072764;28;20038;-71
2020/12/16 08:14:44;;;;;;;11.00;8.73;;;;;;;;;;5055174;28;20394;-71
2020/12/16 08:17:10;;;;;;;13.43;9.10;;;;;;;;;;5076522;28;20029;-70
2020/12/16 08:19:35;;;;;;;15.23;10.07;;;;;;;;;;5058567;28;20024;-71
2020/12/16 08:22:14;;;;;;;28.42;14.52;;;;;;;;;;5076463;28;20483;-70
2020/12/16 08:24:40;;;;;;;32.65;17.23;;;;;;;;;;5076407;28;20039;-70
2020/12/16 08:27:06;;;;;;;29.25;13.40;;;;;;;;;;5076527;28;20024;-70
2020/12/16 08:29:33;;;;;;;30.10;13.00;;;;;;;;;;5076360;28;20031;-70
2020/12/16 08:31:59;;;;;;;29.33;14.00;;;;;;;;;;5076219;28;20020;-70
2020/12/16 08:34:26;;;;;;;29.40;14.60;;;;;;;;;;5076109;28;20071;-70
2020/12/16 08:36:55;;;;;;;29.35;14.63;;;;;;;;;;5076174;28;20374;-70
2020/12/16 08:39:23;;;;;;;31.63;16.15;;;;;;;;;;5076544;28;20466;-70
2020/12/16 08:41:52;;;;;;;30.50;14.50;;;;;;;;;;5076087;28;20035;-70
2020/12/16 08:44:22;;;;;;;33.03;16.13;;;;;;;;;;5058172;28;20052;-70
2020/12/16 08:46:49;;;;;;;31.80;17.35;;;;;;;;;;5076121;28;20111;-70
2020/12/16 08:49:14;;;;;;;36.38;19.33;;;;;;;;;;5075903;28;20515;-69
2020/12/16 08:51:41;;;;;;;41.85;21.10;;;;;;;;;;5075466;28;20063;-69
2020/12/16 08:54:07;;;;;;;30.65;18.52;;;;;;;;;;5075724;28;20111;-70
2020/12/16 08:56:39;;;;;;;29.17;15.88;;;;;;;;;;5075777;28;20047;-69
2020/12/16 08:59:12;;;;;;;22.63;13.43;;;;;;;;;;5057664;28;20074;-69
2020/12/16 09:01:39;;;;;;;22.55;13.45;;;;;;;;;;5041066;28;20048;-69
2020/12/16 09:04:07;;;;;;;20.83;12.55;;;;;;;;;;5075769;28;20077;-69
2020/12/16 09:06:33;;;;;;;21.02;13.18;;;;;;;;;;5074791;28;20035;-69
2020/12/16 09:08:59;;;;;;;21.70;11.30;;;;;;;;;;5057772;28;20029;-69
2020/12/16 09:11:24;;;;;;;19.63;9.23;;;;;;;;;;5075619;28;20051;-70
2020/12/16 09:13:50;;;;;;;22.83;9.95;;;;;;;;;;5075097;28;20037;-70
2020/12/16 09:16:23;;;;;;;16.90;9.98;;;;;;;;;;5075528;28;20399;-70
2020/12/16 09:18:49;;;;;;;16.38;9.10;;;;;;;;;;5075360;28;20103;-70
2020/12/16 09:21:17;;;;;;;21.98;10.05;;;;;;;;;;5075284;28;20463;-70
2020/12/16 09:23:42;;;;;;;13.48;8.15;;;;;;;;;;5057649;28;20050;-70
2020/12/16 09:26:08;;;;;;;19.38;10.13;;;;;;;;;;5056689;28;20467;-70
2020/12/16 09:28:42;;;;;;;14.30;7.85;;;;;;;;;;5074746;28;20025;-70
2020/12/16 09:31:12;;;;;;;13.18;7.18;;;;;;;;;;5074898;28;20048;-70
2020/12/16 09:33:37;;;;;;;14.77;8.30;;;;;;;;;;5075207;28;20381;-70
2020/12/16 09:36:03;;;;;;;15.65;8.68;;;;;;;;;;5057096;28;20028;-70
2020/12/16 09:38:28;;;;;;;16.92;8.35;;;;;;;;;;5074350;28;20021;-70
2020/12/16 09:41:00;;;;;;;14.43;8.90;;;;;;;;;;5074956;28;20048;-70
2020/12/16 09:43:35;;;;;;;11.88;6.47;;;;;;;;;;5075027;28;20036;-70
2020/12/16 09:46:11;;;;;;;15.65;7.57;;;;;;;;;;5074991;28;20017;-71
2020/12/16 09:48:37;;;;;;;16.70;9.63;;;;;;;;;;5075067;28;20020;-71
2020/12/16 09:51:10;;;;;;;11.90;5.18;;;;;;;;;;5074786;28;20485;-71
2020/12/16 09:53:39;;;;;;;15.35;7.65;;;;;;;;;;5056917;28;20031;-71
2020/12/16 09:56:05;;;;;;;13.93;7.85;;;;;;;;;;5074784;28;20111;-71
2020/12/16 09:58:39;;;;;;;15.65;8.85;;;;;;;;;;5074537;28;20166;-71
2020/12/16 10:01:05;;;;;;;7.35;4.70;;;;;;;;;;5074219;28;20033;-71
2020/12/16 10:03:30;;;;;;;13.05;7.40;;;;;;;;;;5040081;28;20024;-70
2020/12/16 10:05:57;;;;;;;20.63;7.93;;;;;;;;;;5074645;28;20032;-71
2020/12/16 10:08:22;;;;;;;15.88;8.35;;;;;;;;;;5074358;28;20025;-70
2020/12/16 10:10:48;;;;;;;10.38;6.53;;;;;;;;;;5056767;28;20035;-71
2020/12/16 10:13:14;;;;;;;15.77;8.00;;;;;;;;;;5056562;28;20048;-70
2020/12/16 10:15:41;;;;;;;12.10;7.07;;;;;;;;;;5074161;28;20064;-70
2020/12/16 10:18:07;;;;;;;16.17;8.57;;;;;;;;;;5073989;28;20052;-70
2020/12/16 10:20:32;;;;;;;15.40;8.65;;;;;;;;;;5074231;28;20035;-71
2020/12/16 10:22:58;;;;;;;12.98;7.22;;;;;;;;;;5074145;28;20017;-71
2020/12/16 10:25:23;;;;;;;13.25;7.10;;;;;;;;;;5073769;28;20037;-71
2020/12/16 10:27:49;;;;;;;16.23;9.43;;;;;;;;;;5073921;28;20048;-71
2020/12/16 10:30:15;;;;;;;10.85;6.85;;;;;;;;;;5039607;28;20064;-72
2020/12/16 10:32:40;;;;;;;10.52;5.65;;;;;;;;;;5073968;28;20017;-72
2020/12/16 10:35:07;;;;;;;13.43;8.35;;;;;;;;;;5073703;28;20068;-72
2020/12/16 10:37:33;;;;;;;16.63;8.32;;;;;;;;;;5055249;28;20025;-72
2020/12/16 10:39:59;;;;;;;18.65;8.35;;;;;;;;;;5073710;28;20044;-73
2020/12/16 10:42:27;;;;;;;16.25;8.23;;;;;;;;;;5073521;28;20463;-72
2020/12/16 10:44:53;;;;;;;14.75;8.07;;;;;;;;;;5073786;28;20119;-73
2020/12/16 10:47:18;;;;;;;13.95;8.55;;;;;;;;;;5055607;28;20120;-72
2020/12/16 10:49:44;;;;;;;13.75;8.15;;;;;;;;;;5073652;28;20471;-72
2020/12/16 10:52:10;;;;;;;16.98;9.10;;;;;;;;;;5039065;28;20419;-72
2020/12/16 10:54:36;;;;;;;18.77;9.25;;;;;;;;;;5073453;28;20029;-72
2020/12/16 10:57:02;;;;;;;16.02;8.52;;;;;;;;;;5055763;28;20025;-72
2020/12/16 10:59:29;;;;;;;12.75;7.93;;;;;;;;;;5052392;28;20443;-72
2020/12/16 11:01:55;;;;;;;13.48;7.47;;;;;;;;;;5062526;28;20033;-73
2020/12/16 11:04:21;;;;;;;13.85;8.18;;;;;;;;;;5065118;28;20035;-73
2020/12/16 11:06:48;;;;;;;13.18;7.60;;;;;;;;;;5055289;28;20024;-73
2020/12/16 11:09:15;;;;;;;12.77;8.02;;;;;;;;;;5059928;28;20111;-73
2020/12/16 11:11:41;;;;;;;18.63;8.02;;;;;;;;;;5065983;28;20093;-73
2020/12/16 11:14:07;;;;;;;14.73;9.13;;;;;;;;;;5059201;28;20044;-73
2020/12/16 11:16:33;;;;;;;20.00;12.65;;;;;;;;;;5061788;28;20058;-73
2020/12/16 11:18:59;;;;;;;13.95;8.77;;;;;;;;;;5024731;28;20028;-73
2020/12/16 11:21:25;;;;;;;17.58;8.90;;;;;;;;;;5053630;28;20029;-73
2020/12/16 11:23:50;;;;;;;13.05;7.95;;;;;;;;;;5060471;28;20407;-73
2020/12/16 11:26:16;;;;;;;20.70;9.73;;;;;;;;;;5061229;28;20067;-73
2020/12/16 11:28:41;;;;;;;32.30;14.85;;;;;;;;;;5035315;28;20025;-73
2020/12/16 11:31:07;;;;;;;54.70;24.63;;;;;;;;;;5053077;28;20095;-73
2020/12/16 11:33:32;;;;;;;78.50;28.45;;;;;;;;;;5077798;28;20074;-72
2020/12/16 11:35:58;;;;;;;47.60;16.98;;;;;;;;;;5068500;28;20058;-72
2020/12/16 11:38:25;;;;;;;45.30;16.90;;;;;;;;;;5067755;28;20024;-75
2020/12/16 11:40:50;;;;;;;41.55;16.80;;;;;;;;;;5037148;28;20050;-75
2020/12/16 11:43:16;;;;;;;28.70;15.18;;;;;;;;;;5068448;28;20387;-75
2020/12/16 11:45:41;;;;;;;21.15;12.55;;;;;;;;;;5035363;28;20024;-75
2020/12/16 11:48:07;;;;;;;19.85;11.50;;;;;;;;;;5052687;28;20079;-74
2020/12/16 11:50:32;;;;;;;18.92;12.20;;;;;;;;;;5054619;28;20048;-74
2020/12/16 11:52:58;;;;;;;19.45;12.02;;;;;;;;;;5039305;28;20037;-74
2020/12/16 11:55:23;;;;;;;18.05;11.85;;;;;;;;;;5057081;28;20052;-73
2020/12/16 11:57:49;;;;;;;23.98;14.57;;;;;;;;;;5072370;28;20040;-73
2020/12/16 12:00:14;;;;;;;22.13;12.70;;;;;;;;;;5047494;28;20017;-73
2020/12/16 12:02:41;;;;;;;15.40;9.75;;;;;;;;;;5052558;28;20024;-73
2020/12/16 12:05:06;;;;;;;16.05;10.27;;;;;;;;;;5070666;28;20111;-73
2020/12/16 12:07:32;;;;;;;19.48;11.52;;;;;;;;;;5071251;28;20127;-73
2020/12/16 12:09:57;;;;;;;17.40;10.98;;;;;;;;;;5069736;28;20032;-72
2020/12/16 12:12:26;;;;;;;24.13;13.43;;;;;;;;;;5067478;28;20108;-72
2020/12/16 12:14:52;;;;;;;33.42;16.67;;;;;;;;;;5045195;28;20115;-72
2020/12/16 12:17:17;;;;;;;30.27;17.75;;;;;;;;;;5070269;28;20189;-72
2020/12/16 12:19:43;;;;;;;23.17;12.73;;;;;;;;;;5076108;28;20023;-72
2020/12/16 12:22:08;;;;;;;23.70;13.88;;;;;;;;;;5058632;28;20360;-72
2020/12/16 12:24:34;;;;;;;25.05;14.55;;;;;;;;;;5042042;28;20027;-71
2020/12/16 12:27:00;;;;;;;17.42;10.68;;;;;;;;;;5058556;28;20032;-72
2020/12/16 12:29:25;;;;;;;17.70;10.63;;;;;;;;;;5076386;28;20059;-71
2020/12/16 12:31:51;;;;;;;17.90;10.45;;;;;;;;;;5076277;28;20066;-72
2020/12/16 12:34:16;;;;;;;20.73;10.90;;;;;;;;;;5075939;28;20028;-72
2020/12/16 12:36:43;;;;;;;17.85;9.80;;;;;;;;;;5076218;28;20382;-71
2020/12/16 12:39:08;;;;;;;19.33;11.13;;;;;;;;;;5076086;28;20016;-71
2020/12/16 12:41:34;;;;;;;16.58;9.80;;;;;;;;;;5076192;28;20382;-72
2020/12/16 12:43:59;;;;;;;26.20;14.38;;;;;;;;;;5058036;28;20032;-71
2020/12/16 12:46:25;;;;;;;25.70;15.18;;;;;;;;;;5076022;28;20051;-72
2020/12/16 12:48:51;;;;;;;25.85;15.98;;;;;;;;;;5057986;28;20471;-72
2020/12/16 12:51:16;;;;;;;24.08;13.55;;;;;;;;;;5058018;28;20114;-72
2020/12/16 12:53:42;;;;;;;62.78;34.00;;;;;;;;;;5075440;28;20416;-72
2020/12/16 12:56:08;;;;;;;57.90;32.58;;;;;;;;;;5055868;28;20416;-72
2020/12/16 12:58:33;;;;;;;89.60;44.63;;;;;;;;;;5074361;28;20548;-72
2020/12/16 13:00:59;;;;;;;43.42;23.92;;;;;;;;;;5073782;28;20064;-71
2020/12/16 13:03:24;;;;;;;17.73;10.85;;;;;;;;;;5057356;28;20391;-71
2020/12/16 13:09:25;;;;;;;17.63;9.48;;;;;;;;;;5076432;28;20063;-72
2020/12/16 13:11:51;;;;;;;11.82;7.00;;;;;;;;;;5076306;28;20029;-71
2020/12/16 13:14:16;;;;;;;12.10;8.00;;;;;;;;;;5075477;28;20032;-71
2020/12/16 13:16:43;;;;;;;15.95;9.60;;;;;;;;;;5075643;28;20028;-72
2020/12/16 13:19:10;;;;;;;19.17;10.52;;;;;;;;;;5075579;28;20009;-71
2020/12/16 13:21:35;;;;;;;20.02;12.20;;;;;;;;;;5075463;28;20024;-72
2020/12/16 13:24:01;;;;;;;18.42;11.57;;;;;;;;;;5075447;28;20027;-73
2020/12/16 13:26:27;;;;;;;18.08;11.25;;;;;;;;;;5075324;28;20036;-73
2020/12/16 13:28:52;;;;;;;21.08;12.23;;;;;;;;;;5075344;28;20020;-73
2020/12/16 13:31:18;;;;;;;20.70;11.73;;;;;;;;;;5075296;28;20111;-73
2020/12/16 13:33:43;;;;;;;21.63;12.82;;;;;;;;;;5057263;28;20474;-73
2020/12/16 13:36:09;;;;;;;21.20;12.23;;;;;;;;;;5075282;28;20485;-73
2020/12/16 13:38:34;;;;;;;25.80;13.50;;;;;;;;;;5075226;28;20023;-73
2020/12/16 13:41:00;;;;;;;27.45;15.20;;;;;;;;;;5075073;28;20021;-73
2020/12/16 13:43:25;;;;;;;27.83;14.98;;;;;;;;;;5075172;28;20066;-73
2020/12/16 13:45:51;;;;;;;29.52;14.73;;;;;;;;;;5075088;28;20115;-73
2020/12/16 13:48:17;;;;;;;32.75;17.35;;;;;;;;;;5074929;28;20063;-73
2020/12/16 13:50:42;;;;;;;29.25;15.65;;;;;;;;;;5074832;28;20038;-73
2020/12/16 13:53:08;;;;;;;27.73;15.32;;;;;;;;;;5056763;28;20023;-73
2020/12/16 13:55:33;;;;;;;30.90;15.05;;;;;;;;;;5074733;28;20547;-76
2020/12/16 13:57:59;;;;;;;31.85;14.48;;;;;;;;;;5040484;28;20107;-76
2020/12/16 14:00:24;;;;;;;31.00;15.05;;;;;;;;;;5056401;28;20040;-76
2020/12/16 14:02:50;;;;;;;24.17;14.30;;;;;;;;;;5074885;28;20399;-77
2020/12/16 14:05:16;;;;;;;24.08;14.10;;;;;;;;;;5074644;28;20029;-77
2020/12/16 14:07:44;;;;;;;29.27;17.67;;;;;;;;;;5074286;28;20071;-77
2020/12/16 14:10:11;;;;;;;41.83;24.63;;;;;;;;;;5087823;28;20026;-77
2020/12/16 14:12:37;;;;;;;38.25;23.50;;;;;;;;;;5094104;28;20028;-76
2020/12/16 14:15:02;;;;;;;33.83;19.63;;;;;;;;;;5094892;28;20024;-76
2020/12/16 14:17:28;;;;;;;27.67;16.67;;;;;;;;;;5075792;28;20024;-76
2020/12/16 14:19:54;;;;;;;28.00;16.45;;;;;;;;;;5075368;28;20024;-76
2020/12/16 14:22:20;;;;;;;29.20;16.27;;;;;;;;;;5076669;28;20077;-76
2020/12/16 14:24:46;;;;;;;27.92;15.63;;;;;;;;;;5095097;28;20016;-76
2020/12/16 14:27:13;;;;;;;28.02;17.85;;;;;;;;;;5092097;28;20467;-75
2020/12/16 14:29:39;;;;;;;53.92;29.75;;;;;;;;;;5076126;28;20054;-75
2020/12/16 14:32:05;;;;;;;62.65;33.90;;;;;;;;;;5070272;28;20036;-75
2020/12/16 14:34:30;;;;;;;85.28;42.58;;;;;;;;;;5055171;28;20025;-75
2020/12/16 14:36:57;;;;;;;127.28;63.95;;;;;;;;;;5074628;28;20033;-73
2020/12/16 14:39:25;;;;;;;134.60;71.32;;;;;;;;;;5056260;28;20013;-75